Time;durP1;ratioP1;P1;durP2;ratioP2;P2;SDS_P1;SDS_P2;PMS_P1;PMS_P2;Temp;Humidity;BMP_temperature;BMP_pressure;BME280_temperature;BME280_humidity;BME280_pressure;Samples;Min_cycle;Max_cycle;Signal;HPM_P1;HPM_P2
2023/01/28 00:01:50;;;;;;;1.95;1.60;;;6.10;70.10;;;;;;5098169;28;20107;-62
2023/01/28 00:04:16;;;;;;;2.00;1.30;;;6.10;70.20;;;;;;5092934;28;20035;-63
2023/01/28 00:06:42;;;;;;;2.28;1.58;;;6.10;70.10;;;;;;5091498;28;20494;-68
2023/01/28 00:09:08;;;;;;;2.83;1.92;;;6.10;70.10;;;;;;5101690;28;20032;-68
2023/01/28 00:11:34;;;;;;;2.42;1.63;;;6.10;70.00;;;;;;5110475;28;20471;-68
2023/01/28 00:13:59;;;;;;;2.85;1.67;;;6.10;70.10;;;;;;5100216;28;20097;-64
2023/01/28 00:16:26;;;;;;;1.33;1.23;;;6.10;70.20;;;;;;5108583;28;20038;-64
2023/01/28 00:18:52;;;;;;;1.83;1.20;;;6.20;70.10;;;;;;5092678;28;20482;-62
2023/01/28 00:21:18;;;;;;;2.22;1.73;;;6.20;70.10;;;;;;5109534;28;20039;-68
2023/01/28 00:23:50;;;;;;;1.60;1.20;;;6.20;70.10;;;;;;5103228;28;20406;-68
2023/01/28 00:26:16;;;;;;;2.33;1.58;;;6.20;70.10;;;;;;5087889;28;20454;-66
2023/01/28 00:28:42;;;;;;;1.48;1.30;;;6.20;70.10;;;;;;5107421;28;20106;-62
2023/01/28 00:31:21;;;;;;;2.45;1.40;;;6.20;70.20;;;;;;5098803;28;20419;-62
2023/01/28 00:33:48;;;;;;;2.03;1.58;;;6.20;70.20;;;;;;5097420;28;20039;-62
2023/01/28 00:36:15;;;;;;;1.58;1.35;;;6.20;70.20;;;;;;5103536;28;20029;-61
2023/01/28 00:38:41;;;;;;;1.65;1.33;;;6.10;69.90;;;;;;5096814;28;20077;-68
2023/01/28 00:41:12;;;;;;;2.67;1.40;;;6.20;70.00;;;;;;5107973;28;20663;-68
2023/01/28 00:43:38;;;;;;;2.40;1.73;;;6.10;70.00;;;;;;5090255;28;20066;-68
2023/01/28 00:46:06;;;;;;;1.58;1.30;;;6.10;70.20;;;;;;5097416;28;20032;-68
2023/01/28 00:48:32;;;;;;;3.53;2.30;;;6.10;70.30;;;;;;5048226;28;20456;-68
2023/01/28 00:50:58;;;;;;;2.83;1.83;;;6.10;70.50;;;;;;5093681;28;20489;-68
2023/01/28 00:53:24;;;;;;;4.10;2.00;;;6.10;70.50;;;;;;5082163;28;20024;-68
2023/01/28 00:55:50;;;;;;;2.22;1.50;;;6.10;70.50;;;;;;5088211;28;20076;-67
2023/01/28 00:58:16;;;;;;;2.50;2.30;;;6.10;70.60;;;;;;5089470;28;20097;-67
2023/01/28 01:00:41;;;;;;;2.47;1.95;;;6.10;70.80;;;;;;5106042;28;20479;-68
2023/01/28 01:03:07;;;;;;;2.30;1.45;;;6.10;71.00;;;;;;5104058;28;20039;-68
2023/01/28 01:05:33;;;;;;;2.00;1.70;;;6.10;71.10;;;;;;5101222;28;20031;-68
2023/01/28 01:07:59;;;;;;;1.58;1.48;;;6.10;71.20;;;;;;5099371;28;20032;-62
2023/01/28 01:10:25;;;;;;;2.20;1.90;;;6.10;71.20;;;;;;5108890;28;20467;-67
2023/01/28 01:12:50;;;;;;;2.25;1.58;;;6.10;71.30;;;;;;5107645;28;20039;-67
2023/01/28 01:15:17;;;;;;;2.13;1.77;;;6.00;71.20;;;;;;5109606;28;20447;-67
2023/01/28 01:17:46;;;;;;;3.33;1.90;;;6.00;71.20;;;;;;5073474;28;20023;-68
2023/01/28 01:20:24;;;;;;;2.67;1.90;;;6.00;71.20;;;;;;5098391;28;20059;-69
2023/01/28 01:22:50;;;;;;;2.08;1.50;;;6.00;71.20;;;;;;5103438;28;20031;-68
2023/01/28 01:25:17;;;;;;;10.27;1.55;;;5.90;71.10;;;;;;5085053;28;20493;-68
2023/01/28 01:27:44;;;;;;;2.03;1.25;;;5.90;71.10;;;;;;5078343;28;20011;-69
2023/01/28 01:30:11;;;;;;;3.00;2.10;;;5.90;71.10;;;;;;5095355;28;20043;-69
2023/01/28 01:32:37;;;;;;;2.42;1.92;;;5.90;71.20;;;;;;5104974;28;20043;-68
2023/01/28 01:35:07;;;;;;;3.08;1.70;;;5.90;71.20;;;;;;5107262;28;20035;-67
2023/01/28 01:37:33;;;;;;;2.63;1.63;;;5.90;71.10;;;;;;5086633;28;20040;-64
2023/01/28 01:40:00;;;;;;;2.25;1.60;;;5.90;71.00;;;;;;5097697;28;20038;-63
2023/01/28 01:42:27;;;;;;;2.67;1.52;;;5.90;71.00;;;;;;5100665;28;20039;-63
2023/01/28 01:45:06;;;;;;;4.00;1.92;;;5.90;70.90;;;;;;5106423;28;20095;-63
2023/01/28 01:47:35;;;;;;;2.13;1.92;;;5.90;70.80;;;;;;5101943;28;20395;-68
2023/01/28 01:50:09;;;;;;;1.67;1.52;;;5.90;70.80;;;;;;5107431;28;20137;-69
2023/01/28 01:52:35;;;;;;;2.85;1.42;;;5.90;70.90;;;;;;5107733;28;20024;-68
2023/01/28 01:55:05;;;;;;;2.67;1.52;;;5.90;70.90;;;;;;5103360;28;20058;-69
2023/01/28 01:57:34;;;;;;;2.58;1.70;;;5.90;70.90;;;;;;5073125;28;20028;-69
2023/01/28 02:00:06;;;;;;;2.65;1.83;;;5.90;70.90;;;;;;5089240;28;20047;-68
2023/01/28 02:02:37;;;;;;;2.35;1.60;;;5.90;70.80;;;;;;5099291;28;20062;-68
2023/01/28 02:05:04;;;;;;;1.70;1.58;;;5.90;70.60;;;;;;5102032;28;20020;-69
2023/01/28 02:07:30;;;;;;;4.55;1.83;;;5.90;70.70;;;;;;5104079;28;20042;-68
2023/01/28 02:09:55;;;;;;;1.88;1.42;;;5.90;70.80;;;;;;5102784;28;20024;-68
2023/01/28 02:12:28;;;;;;;2.03;1.40;;;5.90;70.80;;;;;;5083400;28;20039;-68
2023/01/28 02:15:01;;;;;;;1.45;1.30;;;5.90;70.80;;;;;;5094870;28;20124;-63
2023/01/28 02:17:27;;;;;;;1.42;1.05;;;5.90;70.80;;;;;;5084861;28;20459;-63
2023/01/28 02:20:05;;;;;;;1.85;1.42;;;5.90;70.80;;;;;;5098555;28;20254;-61
2023/01/28 02:23:01;;;;;;;1.38;1.25;;;5.80;70.70;;;;;;5101367;28;20058;-61
2023/01/28 02:26:00;;;;;;;2.58;1.63;;;5.90;70.80;;;;;;5109609;28;20028;-61
2023/01/28 02:28:51;;;;;;;2.00;1.55;;;5.90;70.60;;;;;;5084038;28;20127;-63
2023/01/28 02:31:38;;;;;;;2.90;1.80;;;5.80;70.30;;;;;;5082337;28;20063;-63
2023/01/28 02:34:34;;;;;;;2.88;1.90;;;5.80;70.40;;;;;;5090645;28;20047;-64
2023/01/28 02:37:08;;;;;;;3.00;2.30;;;5.80;70.50;;;;;;5080368;28;20171;-62
2023/01/28 02:39:39;;;;;;;2.30;1.83;;;5.80;70.60;;;;;;5080264;28;20035;-63
2023/01/28 02:42:13;;;;;;;1.75;1.65;;;5.80;70.60;;;;;;5102170;28;20027;-63
2023/01/28 02:44:39;;;;;;;3.30;1.73;;;5.80;70.70;;;;;;5083433;28;20024;-64
2023/01/28 02:49:59;;;;;;;;;;;5.70;70.60;;;;;;5111844;28;20093;-63
2023/01/28 02:55:38;;;;;;;3.20;1.90;;;5.60;70.80;;;;;;5098251;28;20067;-68
2023/01/28 02:58:24;;;;;;;2.65;2.00;;;5.60;70.70;;;;;;5103478;28;20028;-68
2023/01/28 03:00:54;;;;;;;2.88;2.42;;;5.60;70.70;;;;;;5108992;28;20088;-68
2023/01/28 03:03:42;;;;;;;3.70;2.30;;;5.50;70.80;;;;;;5096988;28;20020;-68
2023/01/28 03:06:13;;;;;;;3.25;2.08;;;5.60;70.90;;;;;;5096035;28;20028;-62
2023/01/28 03:37:00;;;;;;;3.83;2.65;;;5.60;71.20;;;;;;5084124;28;20445;-69
2023/01/28 03:39:29;;;;;;;3.85;3.05;;;5.50;71.10;;;;;;5087348;28;20028;-68
2023/01/28 03:42:10;;;;;;;5.07;2.80;;;5.60;71.10;;;;;;5085857;28;20111;-68
2023/01/28 03:47:24;;;;;;;4.95;3.20;;;5.50;71.30;;;;;;5091205;28;20040;-67
2023/01/28 03:49:52;;;;;;;4.97;2.88;;;5.60;71.40;;;;;;5096872;28;20020;-67
2023/01/28 03:52:20;;;;;;;2.70;1.52;;;5.60;71.50;;;;;;5089778;28;20376;-68
2023/01/28 03:54:47;;;;;;;5.53;3.00;;;5.60;71.40;;;;;;5090053;28;20035;-63
2023/01/28 03:57:14;;;;;;;3.60;2.38;;;5.60;71.30;;;;;;5084361;28;20120;-63
2023/01/28 03:59:40;;;;;;;3.25;2.47;;;5.50;71.30;;;;;;5094192;28;20031;-63
2023/01/28 04:02:06;;;;;;;4.32;2.85;;;5.50;71.20;;;;;;5097544;28;20032;-64
2023/01/28 04:04:32;;;;;;;3.72;2.33;;;5.60;71.30;;;;;;5084421;28;20024;-63
2023/01/28 04:07:01;;;;;;;10.48;2.13;;;5.60;71.40;;;;;;5095977;28;20028;-63
2023/01/28 04:09:26;;;;;;;3.95;2.50;;;5.60;71.40;;;;;;5086753;28;20020;-68
2023/01/28 04:11:52;;;;;;;4.90;2.50;;;5.50;71.40;;;;;;5101826;28;20093;-68
2023/01/28 04:14:18;;;;;;;4.80;2.47;;;5.50;71.30;;;;;;5079242;28;20039;-63
2023/01/28 04:16:44;;;;;;;3.38;2.17;;;5.50;71.20;;;;;;5084518;28;20094;-63
2023/01/28 04:19:14;;;;;;;4.68;2.30;;;5.50;71.30;;;;;;5090020;28;20487;-68
2023/01/28 04:21:40;;;;;;;4.03;2.63;;;5.50;71.20;;;;;;5093761;28;20096;-67
2023/01/28 04:24:06;;;;;;;2.90;2.03;;;5.50;71.20;;;;;;5091384;28;20036;-68
2023/01/28 04:26:31;;;;;;;2.83;2.03;;;5.50;71.20;;;;;;5109282;28;20028;-68
2023/01/28 04:28:57;;;;;;;3.53;2.85;;;5.50;71.20;;;;;;5084751;28;20107;-68
2023/01/28 04:31:23;;;;;;;3.03;2.15;;;5.50;71.10;;;;;;5098071;28;20048;-63
2023/01/28 04:33:49;;;;;;;2.75;2.20;;;5.40;71.00;;;;;;5081906;28;20064;-68
2023/01/28 04:36:15;;;;;;;2.95;2.10;;;5.40;70.80;;;;;;5076623;28;20510;-68
2023/01/28 04:38:41;;;;;;;4.57;2.10;;;5.40;70.40;;;;;;5093256;28;20028;-69
2023/01/28 04:41:07;;;;;;;2.67;2.42;;;5.40;70.40;;;;;;5088580;28;20565;-63
2023/01/28 04:43:32;;;;;;;5.55;2.45;;;5.40;70.30;;;;;;5087256;28;20033;-63
2023/01/28 04:45:58;;;;;;;3.00;2.20;;;5.40;70.40;;;;;;5069649;28;20483;-63
2023/01/28 04:48:24;;;;;;;2.05;1.83;;;5.40;70.30;;;;;;5091725;28;20028;-69
2023/01/28 04:50:50;;;;;;;3.97;1.85;;;5.40;70.20;;;;;;5085462;28;20028;-63
2023/01/28 04:53:15;;;;;;;1.80;1.65;;;5.40;70.20;;;;;;5077870;28;20115;-68
2023/01/28 04:55:43;;;;;;;3.25;2.22;;;5.30;70.10;;;;;;5085840;28;20531;-68
2023/01/28 04:58:08;;;;;;;4.38;2.63;;;5.30;70.00;;;;;;5095697;28;20027;-68
2023/01/28 05:00:34;;;;;;;2.92;2.00;;;5.30;70.00;;;;;;5104273;28;20032;-68
2023/01/28 05:03:00;;;;;;;3.28;2.00;;;5.30;69.90;;;;;;5092886;28;20040;-64
2023/01/28 05:05:25;;;;;;;3.22;2.15;;;5.30;69.80;;;;;;5068035;28;20052;-65
2023/01/28 05:07:53;;;;;;;3.35;2.58;;;5.30;69.70;;;;;;5106568;28;20031;-66
2023/01/28 05:10:19;;;;;;;5.28;3.08;;;5.20;69.50;;;;;;5090499;28;20015;-65
2023/01/28 05:12:46;;;;;;;2.70;2.13;;;5.20;69.30;;;;;;5093746;28;20161;-66
2023/01/28 05:15:13;;;;;;;2.65;1.77;;;5.20;69.30;;;;;;5093212;28;20108;-65
2023/01/28 05:17:38;;;;;;;4.63;2.25;;;5.20;69.30;;;;;;5094537;28;20501;-68
2023/01/28 05:20:05;;;;;;;5.10;2.67;;;5.20;69.00;;;;;;5091291;28;20036;-68
2023/01/28 05:22:31;;;;;;;4.78;2.92;;;5.20;68.90;;;;;;5096190;28;20110;-68
2023/01/28 05:24:56;;;;;;;3.50;2.22;;;5.20;68.60;;;;;;5091857;28;20165;-68
2023/01/28 05:27:22;;;;;;;2.45;2.25;;;5.20;68.70;;;;;;5091819;28;20028;-69
2023/01/28 05:29:48;;;;;;;4.47;2.90;;;5.20;68.70;;;;;;5071213;28;20020;-63
2023/01/28 05:32:14;;;;;;;4.22;2.55;;;5.20;68.50;;;;;;5074554;28;20047;-63
2023/01/28 05:34:39;;;;;;;3.47;2.38;;;5.20;68.50;;;;;;5095338;28;20028;-63
2023/01/28 05:37:05;;;;;;;4.47;2.55;;;5.20;69.00;;;;;;5099239;28;20092;-63
2023/01/28 05:39:31;;;;;;;3.60;2.35;;;5.10;68.20;;;;;;5093153;28;20441;-63
2023/01/28 05:41:56;;;;;;;3.38;2.72;;;5.10;68.10;;;;;;5092509;28;20115;-62
2023/01/28 05:44:22;;;;;;;5.35;2.80;;;5.10;68.10;;;;;;5091750;28;20051;-63
2023/01/28 05:46:48;;;;;;;4.80;2.72;;;5.10;68.10;;;;;;5099133;28;20089;-63
2023/01/28 05:49:14;;;;;;;3.03;2.65;;;5.20;68.70;;;;;;5090147;28;20024;-63
2023/01/28 05:51:40;;;;;;;3.22;2.67;;;5.10;68.10;;;;;;5097162;28;20101;-63
2023/01/28 05:54:06;;;;;;;2.55;2.17;;;5.10;68.20;;;;;;5072187;28;20494;-62
2023/01/28 05:56:33;;;;;;;5.47;2.63;;;5.10;68.30;;;;;;5096932;28;20039;-68
2023/01/28 05:58:59;;;;;;;4.07;2.70;;;5.10;68.10;;;;;;5074711;28;20058;-68
2023/01/28 06:01:25;;;;;;;3.85;3.08;;;5.10;68.00;;;;;;5092060;28;20063;-68
2023/01/28 06:03:51;;;;;;;4.78;2.83;;;5.10;67.90;;;;;;5093833;28;20031;-63
2023/01/28 06:06:16;;;;;;;3.63;2.72;;;5.10;67.70;;;;;;5095581;28;20024;-63
2023/01/28 06:08:42;;;;;;;3.22;2.58;;;5.10;67.60;;;;;;5090976;28;20024;-63
2023/01/28 06:11:08;;;;;;;3.10;2.05;;;5.10;67.60;;;;;;5086871;28;20042;-68
2023/01/28 06:13:33;;;;;;;4.43;3.05;;;5.10;67.70;;;;;;5068309;28;20036;-68
2023/01/28 06:15:59;;;;;;;3.60;2.25;;;5.10;67.70;;;;;;5088265;28;20028;-63
2023/01/28 06:18:25;;;;;;;5.07;2.90;;;5.10;67.60;;;;;;5101669;28;20055;-68
2023/01/28 06:20:51;;;;;;;3.70;2.83;;;5.10;67.60;;;;;;5095183;28;20125;-67
2023/01/28 06:23:17;;;;;;;4.00;2.85;;;5.10;67.70;;;;;;5094534;28;20036;-62
2023/01/28 06:25:43;;;;;;;3.90;2.65;;;5.10;67.80;;;;;;5087002;28;20081;-64
2023/01/28 06:28:08;;;;;;;4.18;2.85;;;5.10;67.90;;;;;;5086327;28;20025;-62
2023/01/28 06:30:34;;;;;;;4.20;3.00;;;5.10;68.00;;;;;;5095541;28;20044;-63
2023/01/28 06:33:00;;;;;;;3.47;2.47;;;5.00;68.00;;;;;;5096925;28;20036;-63
2023/01/28 06:35:25;;;;;;;3.63;2.92;;;5.00;67.90;;;;;;5083165;28;20023;-62
2023/01/28 06:37:52;;;;;;;4.75;3.10;;;5.00;67.90;;;;;;5107085;28;20040;-73
2023/01/28 06:40:18;;;;;;;4.57;2.72;;;5.00;68.00;;;;;;5096372;28;20443;-73
2023/01/28 06:42:44;;;;;;;4.55;3.10;;;5.00;68.10;;;;;;5089871;28;20024;-63
2023/01/28 06:45:10;;;;;;;4.28;2.70;;;5.00;68.10;;;;;;5078518;28;20486;-74
2023/01/28 06:47:38;;;;;;;3.60;2.67;;;5.00;68.10;;;;;;5089484;28;20035;-72
2023/01/28 06:50:04;;;;;;;3.83;2.95;;;5.00;68.20;;;;;;5092616;28;20024;-72
2023/01/28 06:52:29;;;;;;;3.55;2.85;;;5.00;68.10;;;;;;5088798;28;20133;-72
2023/01/28 06:54:55;;;;;;;4.18;2.42;;;5.00;67.50;;;;;;5103850;28;20073;-72
2023/01/28 06:57:20;;;;;;;4.63;3.17;;;4.90;67.60;;;;;;5091904;28;20043;-72
2023/01/28 06:59:46;;;;;;;3.97;2.25;;;4.90;67.70;;;;;;5074486;28;20038;-73
2023/01/28 07:02:12;;;;;;;4.13;2.85;;;4.80;67.70;;;;;;5068940;28;20575;-74
2023/01/28 07:04:37;;;;;;;3.45;2.53;;;4.80;67.40;;;;;;5105003;28;20027;-72
2023/01/28 07:07:03;;;;;;;3.72;3.20;;;4.80;67.50;;;;;;5079354;28;20032;-74
2023/01/28 07:09:29;;;;;;;4.50;2.90;;;4.80;67.70;;;;;;5092856;28;20813;-63
2023/01/28 07:11:54;;;;;;;4.32;3.22;;;4.80;67.50;;;;;;5091802;28;20032;-62
2023/01/28 07:14:20;;;;;;;5.15;2.90;;;4.80;67.00;;;;;;5090682;28;20495;-70
2023/01/28 07:16:46;;;;;;;4.20;2.85;;;4.80;66.90;;;;;;5091515;28;20066;-64
2023/01/28 07:19:11;;;;;;;2.90;2.30;;;4.80;66.80;;;;;;5090480;28;20423;-71
2023/01/28 07:21:37;;;;;;;2.88;2.17;;;4.80;66.70;;;;;;5074201;28;20113;-65
2023/01/28 07:24:04;;;;;;;3.95;2.80;;;4.70;66.70;;;;;;5093215;28;20376;-62
2023/01/28 07:26:30;;;;;;;4.22;2.72;;;4.70;66.70;;;;;;5075403;28;20475;-63
2023/01/28 07:28:55;;;;;;;5.32;3.28;;;4.70;66.90;;;;;;5102304;27;20035;-72
2023/01/28 07:31:21;;;;;;;4.35;3.03;;;4.70;67.00;;;;;;5095509;28;20059;-67
2023/01/28 07:33:47;;;;;;;3.17;2.53;;;4.70;67.10;;;;;;5092601;28;20028;-64
2023/01/28 07:36:13;;;;;;;4.28;2.97;;;4.70;67.30;;;;;;5075616;28;20525;-70
2023/01/28 07:38:38;;;;;;;3.83;2.72;;;4.70;67.30;;;;;;5090624;28;20060;-62
2023/01/28 07:41:04;;;;;;;5.93;4.20;;;4.70;67.30;;;;;;5091762;28;20036;-62
2023/01/28 07:43:30;;;;;;;3.17;2.75;;;4.80;67.30;;;;;;5092101;28;20036;-62
2023/01/28 07:46:00;;;;;;;4.57;2.72;;;4.70;67.40;;;;;;5091316;28;20024;-70
2023/01/28 07:48:26;;;;;;;4.40;3.22;;;4.80;67.40;;;;;;5094981;28;20032;-70
2023/01/28 07:50:52;;;;;;;4.93;2.70;;;4.80;67.20;;;;;;5078438;28;20025;-70
2023/01/28 07:53:19;;;;;;;6.13;3.40;;;4.80;67.20;;;;;;5081784;28;20474;-70
2023/01/28 07:55:44;;;;;;;4.65;3.55;;;4.80;67.20;;;;;;5093848;28;20032;-70
2023/01/28 07:58:11;;;;;;;3.70;2.60;;;4.80;67.30;;;;;;5090786;28;20042;-70
2023/01/28 08:00:37;;;;;;;5.38;3.40;;;4.90;67.20;;;;;;5087134;28;20028;-70
2023/01/28 08:03:06;;;;;;;4.53;2.50;;;4.80;66.70;;;;;;5099300;28;20040;-69
2023/01/28 08:05:46;;;;;;;6.10;3.25;;;4.90;66.60;;;;;;5100315;28;20107;-70
2023/01/28 08:08:13;;;;;;;3.33;2.65;;;4.90;66.80;;;;;;5097939;28;20024;-69
2023/01/28 08:10:39;;;;;;;3.72;2.90;;;4.80;66.80;;;;;;5100096;28;20015;-69
2023/01/28 08:13:05;;;;;;;5.18;3.00;;;4.90;67.10;;;;;;5092365;28;20097;-70
2023/01/28 08:15:31;;;;;;;3.92;3.53;;;4.90;67.10;;;;;;5088684;28;20044;-70
2023/01/28 08:17:58;;;;;;;4.95;3.10;;;4.90;67.00;;;;;;5089566;28;20031;-69
2023/01/28 08:20:25;;;;;;;3.25;2.65;;;4.90;66.80;;;;;;5090320;28;20495;-69
2023/01/28 08:22:51;;;;;;;5.35;3.40;;;4.90;66.80;;;;;;5089558;28;20043;-62
2023/01/28 08:25:16;;;;;;;4.72;3.28;;;4.90;66.80;;;;;;5090968;28;20568;-63
2023/01/28 08:27:42;;;;;;;5.38;3.42;;;4.90;66.90;;;;;;5086548;28;20376;-66
2023/01/28 08:30:08;;;;;;;4.45;2.38;;;4.90;66.90;;;;;;5089769;28;20024;-67
2023/01/28 08:32:35;;;;;;;3.28;2.78;;;4.90;67.10;;;;;;5089988;28;20582;-68
2023/01/28 08:35:00;;;;;;;4.30;3.58;;;4.90;67.10;;;;;;5086703;28;20360;-67
2023/01/28 08:37:26;;;;;;;9.35;3.03;;;4.90;67.10;;;;;;5085188;28;20034;-67
2023/01/28 08:39:52;;;;;;;4.60;3.47;;;4.90;67.30;;;;;;5061000;28;20025;-66
2023/01/28 08:42:17;;;;;;;4.40;3.35;;;4.90;67.20;;;;;;5089584;28;20024;-67
2023/01/28 08:44:43;;;;;;;3.83;2.63;;;4.90;67.30;;;;;;5068533;28;20099;-67
2023/01/28 08:47:09;;;;;;;9.68;3.08;;;4.90;67.40;;;;;;5094459;28;20152;-67
2023/01/28 08:49:34;;;;;;;4.90;3.60;;;5.00;67.50;;;;;;5094172;28;20016;-67
2023/01/28 08:52:00;;;;;;;4.18;2.42;;;5.00;67.40;;;;;;5095203;28;20024;-62
2023/01/28 08:54:26;;;;;;;4.07;2.83;;;5.00;67.40;;;;;;5093326;28;20081;-62
2023/01/28 08:56:51;;;;;;;4.40;2.88;;;5.00;67.50;;;;;;5097642;28;20031;-61
2023/01/28 08:59:18;;;;;;;4.75;3.30;;;5.00;67.50;;;;;;5093347;28;20029;-61
2023/01/28 09:01:43;;;;;;;3.28;2.08;;;4.90;67.60;;;;;;5094452;28;21084;-62
2023/01/28 09:04:09;;;;;;;3.42;2.83;;;4.90;67.60;;;;;;5098278;28;20028;-62
2023/01/28 09:06:35;;;;;;;4.15;2.85;;;4.90;67.70;;;;;;5090651;28;20024;-63
2023/01/28 09:09:01;;;;;;;5.45;2.58;;;4.90;67.70;;;;;;5093055;28;20024;-67
2023/01/28 09:11:28;;;;;;;4.55;2.40;;;4.90;67.80;;;;;;5087080;28;20020;-67
2023/01/28 09:13:56;;;;;;;2.88;2.42;;;4.90;67.60;;;;;;5066803;28;20039;-67
2023/01/28 09:16:22;;;;;;;4.18;2.25;;;4.90;67.50;;;;;;5090660;28;20062;-67
2023/01/28 09:18:48;;;;;;;6.65;2.90;;;5.00;67.50;;;;;;5095582;28;20087;-67
2023/01/28 09:21:13;;;;;;;3.42;2.45;;;5.00;67.30;;;;;;5097579;28;20024;-67
2023/01/28 09:23:39;;;;;;;6.00;2.20;;;5.00;67.20;;;;;;5085440;28;20039;-67
2023/01/28 09:26:05;;;;;;;2.35;2.10;;;5.00;67.10;;;;;;5098219;28;20498;-67
2023/01/28 09:28:32;;;;;;;3.97;2.35;;;5.00;67.30;;;;;;5084360;28;20032;-63
2023/01/28 09:31:16;;;;;;;2.67;2.03;;;5.00;67.30;;;;;;5086771;28;20487;-63
2023/01/28 09:33:41;;;;;;;3.25;2.42;;;5.00;67.30;;;;;;5081399;28;20056;-63
2023/01/28 09:36:10;;;;;;;2.63;1.83;;;5.00;67.20;;;;;;5088338;28;20504;-62
2023/01/28 09:38:36;;;;;;;3.05;2.45;;;5.00;67.30;;;;;;5081153;28;20465;-63
2023/01/28 09:41:10;;;;;;;6.65;2.97;;;5.00;67.30;;;;;;5092906;28;20060;-63
2023/01/28 09:43:44;;;;;;;3.50;2.05;;;5.00;67.30;;;;;;5085058;28;20048;-67
2023/01/28 09:46:13;;;;;;;3.80;2.65;;;5.00;67.30;;;;;;5080467;28;20035;-67
2023/01/28 09:48:43;;;;;;;4.40;2.22;;;5.00;67.10;;;;;;5092010;28;20056;-67
2023/01/28 09:51:16;;;;;;;2.30;2.03;;;5.10;67.10;;;;;;5091743;28;20467;-67
2023/01/28 09:53:49;;;;;;;3.40;2.28;;;5.10;67.10;;;;;;5094004;28;20102;-63
2023/01/28 09:56:19;;;;;;;;;;;5.10;67.20;;;;;;5090436;28;20024;-63
2023/01/28 09:58:45;;;;;;;2.40;2.13;;;5.10;67.20;;;;;;5094325;28;19904;-63
2023/01/28 10:01:10;;;;;;;1.75;1.50;;;5.10;67.30;;;;;;5083827;28;20081;-67
2023/01/28 10:03:58;;;;;;;1.80;1.65;;;5.20;67.20;;;;;;5069072;28;20527;-67
2023/01/28 10:07:00;;;;;;;2.40;1.70;;;5.30;67.10;;;;;;5083075;28;20485;-63
2023/01/28 10:09:41;;;;;;;2.67;2.08;;;5.40;67.00;;;;;;5084336;28;20040;-67
2023/01/28 10:12:28;;;;;;;5.53;1.90;;;5.40;67.00;;;;;;5076647;28;20034;-67
2023/01/28 10:15:18;;;;;;;2.38;2.15;;;5.60;66.70;;;;;;5081568;28;20467;-63
2023/01/28 10:17:46;;;;;;;2.70;2.08;;;5.60;66.50;;;;;;5088980;28;20459;-63
2023/01/28 10:20:12;;;;;;;4.75;2.22;;;5.70;66.30;;;;;;5070849;28;20031;-62
2023/01/28 10:22:47;;;;;;;3.55;2.40;;;5.80;66.10;;;;;;5094021;28;20040;-63
2023/01/28 10:25:24;;;;;;;3.25;2.15;;;5.90;66.00;;;;;;5065272;28;20024;-63
2023/01/28 10:27:51;;;;;;;2.22;1.38;;;6.00;65.80;;;;;;5085766;28;20423;-67
2023/01/28 10:30:20;;;;;;;3.03;2.30;;;6.00;65.60;;;;;;5093537;28;20044;-67
2023/01/28 10:33:17;;;;;;;2.33;1.52;;;6.10;65.50;;;;;;5093449;28;20222;-67
2023/01/28 10:35:43;;;;;;;2.80;1.95;;;6.20;65.10;;;;;;5091577;28;20051;-67
2023/01/28 10:38:14;;;;;;;2.83;1.92;;;6.10;65.20;;;;;;5076458;28;20133;-62
2023/01/28 10:40:43;;;;;;;1.70;1.58;;;6.20;65.40;;;;;;5083159;28;20046;-63
2023/01/28 10:43:09;;;;;;;1.60;1.27;;;6.20;65.40;;;;;;5091610;28;20491;-67
2023/01/28 10:45:48;;;;;;;2.42;1.98;;;6.20;65.50;;;;;;5075744;28;20009;-67
2023/01/28 10:48:34;;;;;;;3.40;1.80;;;6.20;65.40;;;;;;5089008;28;20035;-67
2023/01/28 10:51:03;;;;;;;2.40;1.98;;;6.20;65.40;;;;;;5090431;28;20391;-67
2023/01/28 10:53:39;;;;;;;4.13;2.47;;;6.20;65.40;;;;;;5096245;28;20243;-68
2023/01/28 10:56:22;;;;;;;3.00;1.85;;;6.30;65.40;;;;;;5094891;28;20129;-66
2023/01/28 10:59:17;;;;;;;;;;;6.50;65.30;;;;;;5082201;28;20106;-66
2023/01/28 11:01:49;;;;;;;2.85;1.88;;;6.60;65.20;;;;;;5092863;28;19910;-66
2023/01/28 11:04:31;;;;;;;2.30;2.10;;;6.90;65.00;;;;;;5091849;28;20065;-67
2023/01/28 11:06:58;;;;;;;1.58;1.48;;;7.20;64.40;;;;;;5085460;28;20035;-66
2023/01/28 11:09:30;;;;;;;2.90;2.03;;;7.50;63.80;;;;;;5100391;28;20501;-66
2023/01/28 11:11:56;;;;;;;2.95;2.15;;;7.60;63.20;;;;;;5091625;28;20012;-62
2023/01/28 11:14:26;;;;;;;3.75;2.75;;;7.80;62.90;;;;;;5088799;28;20554;-61
2023/01/28 11:16:55;;;;;;;3.75;2.60;;;8.00;62.40;;;;;;5085260;28;20418;-63
2023/01/28 11:19:26;;;;;;;2.72;1.83;;;8.30;61.50;;;;;;5093568;28;20478;-60
2023/01/28 11:21:55;;;;;;;5.00;2.53;;;8.70;60.80;;;;;;5105903;28;20107;-61
2023/01/28 11:24:30;;;;;;;3.92;2.25;;;8.80;59.30;;;;;;5087291;28;20464;-61
2023/01/28 11:26:59;;;;;;;2.72;2.17;;;8.70;59.60;;;;;;5087871;28;20025;-66
2023/01/28 11:29:30;;;;;;;2.90;2.17;;;9.70;59.70;;;;;;5092323;28;20184;-66
2023/01/28 11:31:57;;;;;;;4.23;1.87;;;12.00;55.20;;;;;;5083346;28;20457;-66
2023/01/28 11:34:27;;;;;;;3.35;2.13;;;13.70;51.40;;;;;;5062551;28;20067;-67
2023/01/28 11:37:23;;;;;;;3.33;2.05;;;15.80;47.40;;;;;;5065797;28;20032;-67
2023/01/28 11:40:13;;;;;;;1.77;1.40;;;18.10;42.60;;;;;;5063835;28;20132;-67
2023/01/28 11:42:39;;;;;;;3.47;2.10;;;19.60;40.00;;;;;;5053823;28;20369;-62
2023/01/28 11:45:32;;;;;;;3.05;2.05;;;20.60;37.50;;;;;;5064063;28;20024;-62
2023/01/28 11:48:03;;;;;;;2.60;2.30;;;21.70;36.40;;;;;;5063823;28;20125;-62
2023/01/28 11:50:38;;;;;;;3.90;1.60;;;22.50;35.00;;;;;;5070622;28;20108;-63
2023/01/28 11:53:34;;;;;;;3.40;2.00;;;22.80;34.20;;;;;;5076880;28;20028;-62
2023/01/28 11:56:29;;;;;;;2.75;2.47;;;23.30;32.50;;;;;;5070835;28;20032;-62
2023/01/28 11:59:05;;;;;;;1.98;1.30;;;23.50;31.60;;;;;;5077815;28;20042;-63
2023/01/28 12:01:47;;;;;;;2.28;1.60;;;23.70;31.50;;;;;;5064216;28;20013;-62
2023/01/28 12:04:24;;;;;;;2.50;2.05;;;24.00;31.10;;;;;;5062259;28;20032;-63
2023/01/28 12:07:08;;;;;;;3.05;1.95;;;24.10;31.10;;;;;;5079992;28;20027;-62
2023/01/28 12:09:53;;;;;;;1.90;1.45;;;24.10;31.10;;;;;;5063121;28;20100;-63
2023/01/28 12:12:46;;;;;;;2.90;1.55;;;24.30;30.40;;;;;;5063103;28;20024;-62
2023/01/28 12:15:17;;;;;;;1.63;1.20;;;23.50;31.00;;;;;;5058902;28;20039;-63
2023/01/28 12:17:54;;;;;;;2.78;1.83;;;23.30;31.40;;;;;;5063599;28;20051;-63
2023/01/28 12:20:53;;;;;;;1.70;1.38;;;23.10;30.90;;;;;;5066205;28;20021;-63
2023/01/28 12:23:28;;;;;;;3.05;1.67;;;22.00;31.70;;;;;;5068201;28;20021;-62
2023/01/28 12:26:18;;;;;;;2.65;1.58;;;20.90;32.70;;;;;;5062751;28;20501;-63
2023/01/28 12:29:06;;;;;;;2.25;1.70;;;19.20;34.40;;;;;;5076952;28;20046;-62
2023/01/28 12:31:58;;;;;;;2.50;1.63;;;18.00;35.80;;;;;;5084210;28;20126;-61
2023/01/28 12:34:58;;;;;;;1.88;1.25;;;17.10;36.60;;;;;;5073844;28;20039;-66
2023/01/28 12:37:50;;;;;;;3.20;1.95;;;15.50;38.50;;;;;;5087729;28;20020;-67
2023/01/28 12:40:21;;;;;;;2.70;1.70;;;14.50;40.60;;;;;;5089918;28;20119;-66
2023/01/28 12:43:04;;;;;;;2.60;1.77;;;14.70;42.50;;;;;;5088941;28;20027;-66
2023/01/28 12:45:39;;;;;;;2.75;1.98;;;15.10;40.40;;;;;;5106699;28;20076;-66
2023/01/28 12:48:31;;;;;;;2.50;1.45;;;15.00;41.00;;;;;;5100657;28;20099;-66
2023/01/28 12:51:12;;;;;;;2.85;1.50;;;15.80;40.30;;;;;;5082554;28;20458;-66
2023/01/28 12:53:58;;;;;;;2.72;1.80;;;17.00;38.70;;;;;;5089004;28;20524;-66
2023/01/28 12:56:29;;;;;;;2.10;1.67;;;17.10;37.30;;;;;;5076761;28;20028;-66
2023/01/28 12:59:01;;;;;;;3.90;2.47;;;16.20;38.30;;;;;;5086614;28;20695;-67
2023/01/28 13:01:41;;;;;;;2.40;1.65;;;15.10;39.90;;;;;;5088512;28;20873;-60
2023/01/28 13:04:13;;;;;;;3.60;2.40;;;13.90;41.50;;;;;;5090853;28;20071;-60
2023/01/28 13:06:57;;;;;;;3.10;1.92;;;12.80;43.10;;;;;;5101695;28;20819;-61
2023/01/28 13:09:25;;;;;;;4.07;2.33;;;12.10;44.80;;;;;;5105886;28;20443;-62
2023/01/28 13:11:55;;;;;;;1.65;1.30;;;11.70;46.00;;;;;;5074643;28;20036;-66
2023/01/28 13:14:27;;;;;;;2.00;1.77;;;11.40;46.50;;;;;;5097644;28;20024;-66
2023/01/28 13:16:53;;;;;;;5.50;2.00;;;11.00;47.40;;;;;;5098192;28;20085;-67
2023/01/28 13:19:19;;;;;;;2.95;1.88;;;11.00;47.70;;;;;;5088275;28;20044;-66
2023/01/28 13:21:46;;;;;;;3.47;2.38;;;10.90;48.20;;;;;;5088424;28;20111;-66
2023/01/28 13:24:14;;;;;;;5.15;2.50;;;10.80;48.70;;;;;;5089147;28;20474;-67
2023/01/28 13:26:44;;;;;;;3.13;2.20;;;10.70;49.00;;;;;;5090564;28;20028;-66
2023/01/28 13:29:13;;;;;;;2.55;1.88;;;10.60;49.00;;;;;;5074437;28;20138;-65
2023/01/28 13:31:42;;;;;;;3.28;2.00;;;10.60;49.20;;;;;;5097930;28;20058;-65
2023/01/28 13:34:35;;;;;;;5.50;2.58;;;10.80;49.80;;;;;;5090648;28;20038;-65
2023/01/28 13:37:31;;;;;;;6.53;2.55;;;11.60;49.10;;;;;;5088229;28;20028;-66
2023/01/28 13:40:03;;;;;;;2.75;2.00;;;13.00;46.90;;;;;;5076151;28;20684;-67
2023/01/28 13:42:30;;;;;;;3.63;2.05;;;14.40;44.20;;;;;;5084344;28;20025;-67
2023/01/28 13:45:14;;;;;;;2.63;1.75;;;15.10;43.10;;;;;;5091279;28;20020;-65
2023/01/28 13:47:44;;;;;;;2.20;1.60;;;16.40;41.30;;;;;;5088769;28;20077;-61
2023/01/28 13:50:22;;;;;;;3.53;2.30;;;17.40;39.60;;;;;;5083979;28;20020;-66